Time;durP1;ratioP1;P1;durP2;ratioP2;P2;SDS_P1;SDS_P2;PMS_P1;PMS_P2;Temp;Humidity;BMP_temperature;BMP_pressure;BME280_temperature;BME280_humidity;BME280_pressure;Samples;Min_cycle;Max_cycle;Signal;HPM_P1;HPM_P2
2023/10/20 05:17:46;;;;;;;;;;;;;;;;;;4932020;28;20301;-40
2023/10/20 05:20:14;;;;;;;;;;;;;;;;;;4931477;29;19977;-40
2023/10/20 05:22:40;;;;;;;;;;;;;;;;;;4931631;29;20397;-40
2023/10/20 05:25:06;;;;;;;;;;;;;;;;;;4931435;29;19926;-40
2023/10/20 05:27:32;;;;;;;;;;;;;;;;;;4931058;29;19915;-41
2023/10/20 05:29:58;;;;;;;;;;;;;;;;;;4931653;29;19994;-41
2023/10/20 05:32:24;;;;;;;;;;;;;;;;;;4931526;29;20282;-42
2023/10/20 05:34:53;;;;;;;;;;;;;;;;;;4931436;29;19911;-41
2023/10/20 05:37:21;;;;;;;;;;;;;;;;;;4931224;29;19926;-41
2023/10/20 05:39:47;;;;;;;;;;;;;;;;;;4931273;29;20002;-41
2023/10/20 05:42:13;;;;;;;;;;;;;;;;;;4930875;29;20404;-40
2023/10/20 05:44:48;;;;;;;;;;;;;;;;;;4931461;29;19964;-41
2023/10/20 05:47:13;;;;;;;;;;;;;;;;;;4930234;29;20005;-40
2023/10/20 05:49:39;;;;;;;;;;;;;;;;;;4931080;29;19997;-41
2023/10/20 05:52:05;;;;;;;;;;;;;;;;;;4931070;29;19915;-41
2023/10/20 05:54:31;;;;;;;;;;;;;;;;;;4945617;29;19915;-40
2023/10/20 05:56:57;;;;;;;;;;;;;;;;;;4930889;29;19965;-41
2023/10/20 05:59:23;;;;;;;;;;;;;;;;;;4930966;29;19915;-40
2023/10/20 06:01:49;;;;;;;;;;;;;;;;;;4930776;29;20379;-42
2023/10/20 06:04:15;;;;;;;;;;;;;;;;;;4930987;29;20000;-41
2023/10/20 06:06:41;;;;;;;;;;;;;;;;;;4930610;29;19917;-41
2023/10/20 06:09:07;;;;;;;;;;;;;;;;;;4930578;29;19918;-41
2023/10/20 06:11:35;;;;;;;;;;;;;;;;;;4930679;29;19911;-41
2023/10/20 06:14:01;;;;;;;;;;;;;;;;;;4930692;29;19911;-41
2023/10/20 06:16:27;;;;;;;;;;;;;;;;;;4930696;29;19917;-41
2023/10/20 06:18:53;;;;;;;;;;;;;;;;;;4930295;29;20285;-41
2023/10/20 06:21:19;;;;;;;;;;;;;;;;;;4930478;29;20014;-41
2023/10/20 06:23:46;;;;;;;;;;;;;;;;;;4930456;29;19954;-41
2023/10/20 06:26:12;;;;;;;;;;;;;;;;;;4930393;29;19965;-41
2023/10/20 06:28:38;;;;;;;;;;;;;;;;;;4930736;29;20297;-41
2023/10/20 06:31:26;;;;;;;;;;;;;;;;;;4930620;29;19911;-41
2023/10/20 06:34:35;;;;;;;;;;;;;;;;;;4931135;29;20369;-41
2023/10/20 06:36:48;;;;;;;;;;;;;;;;;;4929480;29;20001;-40
2023/10/20 06:39:14;;;;;;;;;;;;;;;;;;4930388;29;19921;-41
2023/10/20 06:41:40;;;;;;;;;;;;;;;;;;4930063;29;19911;-41
2023/10/20 06:44:05;;;;;;;;;;;;;;;;;;4930259;29;19922;-41
2023/10/20 06:46:31;;;;;;;;;;;;;;;;;;4929906;29;20227;-41
2023/10/20 06:48:57;;;;;;;;;;;;;;;;;;4930524;29;20344;-41
2023/10/20 06:51:23;;;;;;;;;;;;;;;;;;4930389;29;20210;-41
2023/10/20 06:53:49;;;;;;;;;;;;;;;;;;4930535;29;19918;-41
2023/10/20 06:56:15;;;;;;;;;;;;;;;;;;4930133;29;19911;-41
2023/10/20 06:58:41;;;;;;;;;;;;;;;;;;4929996;29;20005;-42
2023/10/20 07:01:07;;;;;;;;;;;;;;;;;;4930005;29;19976;-42
2023/10/20 07:03:33;;;;;;;;;;;;;;;;;;4944778;29;19918;-41
2023/10/20 07:05:59;;;;;;;;;;;;;;;;;;4930230;29;19922;-41
2023/10/20 07:08:25;;;;;;;;;;;;;;;;;;4930062;29;19911;-42
2023/10/20 07:10:50;;;;;;;;;;;;;;;;;;4930021;29;20440;-42
2023/10/20 07:13:17;;;;;;;;;;;;;;;;;;4929690;29;19938;-42
2023/10/20 07:15:43;;;;;;;;;;;;;;;;;;4929083;29;19978;-42
2023/10/20 07:18:11;;;;;;;;;;;;;;;;;;4927993;29;19923;-42
2023/10/20 07:20:38;;;;;;;;;;;;;;;;;;4928612;29;20354;-42
2023/10/20 07:23:05;;;;;;;;;;;;;;;;;;4928544;29;20285;-42
2023/10/20 07:25:32;;;;;;;;;;;;;;;;;;4927894;29;19911;-41
2023/10/20 07:27:58;;;;;;;;;;;;;;;;;;4927813;29;19921;-42
2023/10/20 07:30:23;;;;;;;;;;;;;;;;;;4927963;29;20385;-42
2023/10/20 07:32:52;;;;;;;;;;;;;;;;;;4927893;29;19911;-42
2023/10/20 07:35:18;;;;;;;;;;;;;;;;;;4928106;29;20583;-42
2023/10/20 07:37:44;;;;;;;;;;;;;;;;;;4927759;29;19998;-42
2023/10/20 07:40:10;;;;;;;;;;;;;;;;;;4928003;29;19915;-42
2023/10/20 07:42:38;;;;;;;;;;;;;;;;;;4942669;29;20010;-42
2023/10/20 07:45:04;;;;;;;;;;;;;;;;;;4927898;29;20278;-42
2023/10/20 07:47:32;;;;;;;;;;;;;;;;;;4927642;29;19915;-43
2023/10/20 07:49:58;;;;;;;;;;;;;;;;;;4928071;29;20009;-43
2023/10/20 07:52:24;;;;;;;;;;;;;;;;;;4927690;29;20026;-42
2023/10/20 07:54:50;;;;;;;;;;;;;;;;;;4927687;29;19957;-42
2023/10/20 07:57:17;;;;;;;;;;;;;;;;;;4927362;29;19911;-43
2023/10/20 07:59:43;;;;;;;;;;;;;;;;;;4927542;29;20404;-42
2023/10/20 08:02:09;;;;;;;;;;;;;;;;;;4928071;29;20309;-43
2023/10/20 08:04:36;;;;;;;;;;;;;;;;;;4927729;29;19955;-42
2023/10/20 08:07:02;;;;;;;;;;;;;;;;;;4927390;29;19911;-42
2023/10/20 08:09:28;;;;;;;;;;;;;;;;;;4927671;29;19911;-43
2023/10/20 08:11:54;;;;;;;;;;;;;;;;;;4930615;29;19911;-42
2023/10/20 08:14:20;;;;;;;;;;;;;;;;;;4931003;29;19914;-43
2023/10/20 08:16:46;;;;;;;;;;;;;;;;;;4930450;29;19911;-43
2023/10/20 08:19:12;;;;;;;;;;;;;;;;;;4930995;29;19965;-44
2023/10/20 08:21:38;;;;;;;;;;;;;;;;;;4931402;29;19915;-43
2023/10/20 08:24:05;;;;;;;;;;;;;;;;;;4930470;29;19911;-43
2023/10/20 08:26:31;;;;;;;;;;;;;;;;;;4930760;29;19957;-45
2023/10/20 08:28:57;;;;;;;;;;;;;;;;;;4930315;29;20216;-44
2023/10/20 08:31:23;;;;;;;;;;;;;;;;;;4945317;29;20374;-45
2023/10/20 08:33:52;;;;;;;;;;;;;;;;;;4930504;29;20330;-45
2023/10/20 08:36:20;;;;;;;;;;;;;;;;;;4930318;29;19911;-45
2023/10/20 08:38:47;;;;;;;;;;;;;;;;;;4930190;29;20423;-46
2023/10/20 08:41:13;;;;;;;;;;;;;;;;;;4930568;29;20366;-43
2023/10/20 08:43:40;;;;;;;;;;;;;;;;;;4930939;29;19965;-46
2023/10/20 08:46:08;;;;;;;;;;;;;;;;;;4930262;29;19918;-44
2023/10/20 08:48:34;;;;;;;;;;;;;;;;;;4930304;29;19984;-44
2023/10/20 08:50:59;;;;;;;;;;;;;;;;;;4930312;29;19982;-43
2023/10/20 08:53:25;;;;;;;;;;;;;;;;;;4924624;28;20669;-44
2023/10/20 08:55:51;;;;;;;;;;;;;;;;;;4927044;28;20042;-44
2023/10/20 08:58:17;;;;;;;;;;;;;;;;;;4928853;28;19933;-44
2023/10/20 09:00:43;;;;;;;;;;;;;;;;;;4929885;28;19925;-43
2023/10/20 09:03:10;;;;;;;;;;;;;;;;;;4931901;29;19910;-44
2023/10/20 09:05:36;;;;;;;;;;;;;;;;;;4930208;28;20381;-45
2023/10/20 09:08:02;;;;;;;;;;;;;;;;;;4924651;28;19922;-43
2023/10/20 09:10:28;;;;;;;;;;;;;;;;;;4919841;28;19938;-45
2023/10/20 09:12:54;;;;;;;;;;;;;;;;;;4930891;28;19946;-43
2023/10/20 09:15:21;;;;;;;;;;;;;;;;;;4927373;28;19961;-46
2023/10/20 09:17:46;;;;;;;;;;;;;;;;;;4918187;28;19919;-45
2023/10/20 09:20:14;;;;;;;;;;;;;;;;;;4927815;29;20460;-47
2023/10/20 09:22:39;;;;;;;;;;;;;;;;;;4929141;28;19929;-47
2023/10/20 09:25:05;;;;;;;;;;;;;;;;;;4930715;29;19910;-44
2023/10/20 09:27:31;;;;;;;;;;;;;;;;;;4927318;28;19919;-44
2023/10/20 09:29:57;;;;;;;;;;;;;;;;;;4929753;28;20313;-46
2023/10/20 09:32:23;;;;;;;;;;;;;;;;;;4937993;28;19923;-43
2023/10/20 09:34:49;;;;;;;;;;;;;;;;;;4925960;28;19923;-44
2023/10/20 09:37:15;;;;;;;;;;;;;;;;;;4928424;28;19923;-44
2023/10/20 09:39:41;;;;;;;;;;;;;;;;;;4929381;29;19950;-46
2023/10/20 09:42:07;;;;;;;;;;;;;;;;;;4927211;29;19943;-45
2023/10/20 09:44:33;;;;;;;;;;;;;;;;;;4929228;28;19915;-44
2023/10/20 09:46:59;;;;;;;;;;;;;;;;;;4928173;29;19930;-43
2023/10/20 09:49:30;;;;;;;;;;;;;;;;;;4929714;28;19961;-43
2023/10/20 09:51:57;;;;;;;;;;;;;;;;;;4930435;29;20376;-46
2023/10/20 09:54:24;;;;;;;;;;;;;;;;;;4929298;28;19988;-44
2023/10/20 09:56:49;;;;;;;;;;;;;;;;;;4929412;29;20339;-47
2023/10/20 09:59:15;;;;;;;;;;;;;;;;;;4916693;28;20006;-44
2023/10/20 10:01:41;;;;;;;;;;;;;;;;;;4929836;29;19917;-43
2023/10/20 10:04:09;;;;;;;;;;;;;;;;;;4942531;28;19926;-43
2023/10/20 10:06:35;;;;;;;;;;;;;;;;;;4925807;28;19926;-45
2023/10/20 10:09:04;;;;;;;;;;;;;;;;;;4925955;28;19921;-46
2023/10/20 10:11:30;;;;;;;;;;;;;;;;;;4929370;28;19937;-43
2023/10/20 10:13:58;;;;;;;;;;;;;;;;;;4929233;28;20411;-44
2023/10/20 10:16:23;;;;;;;;;;;;;;;;;;4928663;28;19915;-43
2023/10/20 10:18:50;;;;;;;;;;;;;;;;;;4927972;28;20392;-45
2023/10/20 10:21:16;;;;;;;;;;;;;;;;;;4928187;29;20001;-43
2023/10/20 10:23:43;;;;;;;;;;;;;;;;;;4929457;29;19950;-43
2023/10/20 10:26:09;;;;;;;;;;;;;;;;;;4926418;28;20003;-45
2023/10/20 10:28:35;;;;;;;;;;;;;;;;;;4929883;29;19917;-44
2023/10/20 10:31:01;;;;;;;;;;;;;;;;;;4926324;28;19923;-44
2023/10/20 10:33:27;;;;;;;;;;;;;;;;;;4927924;28;19915;-44
2023/10/20 10:35:53;;;;;;;;;;;;;;;;;;4928135;28;19926;-44
2023/10/20 10:38:20;;;;;;;;;;;;;;;;;;4928792;29;20376;-44
2023/10/20 10:40:45;;;;;;;;;;;;;;;;;;4928701;28;21111;-45
2023/10/20 10:43:11;;;;;;;;;;;;;;;;;;4929858;29;20002;-46
2023/10/20 10:45:37;;;;;;;;;;;;;;;;;;4927399;29;19915;-46
2023/10/20 10:48:03;;;;;;;;;;;;;;;;;;4926890;28;19937;-43
2023/10/20 10:50:30;;;;;;;;;;;;;;;;;;4943225;28;20441;-44
2023/10/20 10:52:56;;;;;;;;;;;;;;;;;;4944692;29;20366;-44
2023/10/20 10:55:24;;;;;;;;;;;;;;;;;;4930176;29;20321;-45
2023/10/20 10:57:50;;;;;;;;;;;;;;;;;;4928616;29;19915;-46
2023/10/20 11:00:16;;;;;;;;;;;;;;;;;;4928350;28;20533;-45
2023/10/20 11:02:42;;;;;;;;;;;;;;;;;;4943050;28;19914;-44
2023/10/20 11:05:08;;;;;;;;;;;;;;;;;;4929047;29;19922;-44
2023/10/20 11:07:34;;;;;;;;;;;;;;;;;;4945190;28;19922;-43
2023/10/20 11:10:00;;;;;;;;;;;;;;;;;;4928288;28;20318;-44
2023/10/20 11:12:26;;;;;;;;;;;;;;;;;;4928333;29;19911;-43
2023/10/20 11:14:52;;;;;;;;;;;;;;;;;;4927061;29;19922;-47
2023/10/20 11:17:18;;;;;;;;;;;;;;;;;;4926017;28;19923;-43
2023/10/20 11:19:44;;;;;;;;;;;;;;;;;;4926709;28;21006;-43
2023/10/20 11:22:10;;;;;;;;;;;;;;;;;;4925413;29;19941;-42
2023/10/20 11:24:36;;;;;;;;;;;;;;;;;;4927512;28;20317;-43
2023/10/20 11:27:02;;;;;;;;;;;;;;;;;;4926849;29;19921;-44
2023/10/20 11:29:28;;;;;;;;;;;;;;;;;;4928800;29;20628;-43
2023/10/20 11:31:54;;;;;;;;;;;;;;;;;;4916607;28;19916;-42
2023/10/20 11:34:20;;;;;;;;;;;;;;;;;;4924292;29;19961;-42
2023/10/20 11:36:46;;;;;;;;;;;;;;;;;;4928312;28;19938;-43
2023/10/20 11:39:12;;;;;;;;;;;;;;;;;;4926519;29;19926;-43
2023/10/20 11:41:38;;;;;;;;;;;;;;;;;;4930083;29;20484;-43
2023/10/20 11:44:04;;;;;;;;;;;;;;;;;;4928181;28;20404;-42
2023/10/20 11:46:30;;;;;;;;;;;;;;;;;;4929397;29;19911;-42
2023/10/20 11:48:56;;;;;;;;;;;;;;;;;;4919150;29;19919;-43
2023/10/20 11:51:21;;;;;;;;;;;;;;;;;;4928325;28;19911;-42
2023/10/20 11:53:47;;;;;;;;;;;;;;;;;;4928364;29;19911;-43
2023/10/20 11:56:13;;;;;;;;;;;;;;;;;;4929717;29;19911;-42
2023/10/20 11:58:39;;;;;;;;;;;;;;;;;;4930027;29;19911;-42
2023/10/20 12:01:05;;;;;;;;;;;;;;;;;;4930072;29;19915;-42
2023/10/20 12:03:31;;;;;;;;;;;;;;;;;;5002212;28;20123;-43
2023/10/20 12:05:58;;;;;;;;;;;;;;;;;;4939732;28;20391;-42
2023/10/20 12:08:24;;;;;;;;;;;;;;;;;;4923805;29;20362;-43
2023/10/20 12:10:50;;;;;;;;;;;;;;;;;;4914604;29;19918;-43
2023/10/20 12:13:16;;;;;;;;;;;;;;;;;;4910486;29;19981;-42
2023/10/20 12:15:42;;;;;;;;;;;;;;;;;;4910202;29;19911;-43
2023/10/20 12:18:08;;;;;;;;;;;;;;;;;;4910885;29;19919;-43
2023/10/20 12:20:34;;;;;;;;;;;;;;;;;;4916072;29;19965;-43
2023/10/20 12:23:00;;;;;;;;;;;;;;;;;;4928333;29;19962;-43
2023/10/20 12:25:26;;;;;;;;;;;;;;;;;;4929359;29;19942;-42
2023/10/20 12:27:52;;;;;;;;;;;;;;;;;;4923654;29;19972;-42
2023/10/20 12:30:18;;;;;;;;;;;;;;;;;;4925374;28;20518;-43
2023/10/20 12:32:44;;;;;;;;;;;;;;;;;;4927471;28;19997;-44
2023/10/20 12:35:13;;;;;;;;;;;;;;;;;;4927905;28;20523;-43
2023/10/20 12:37:39;;;;;;;;;;;;;;;;;;4926168;28;20294;-43
2023/10/20 12:40:05;;;;;;;;;;;;;;;;;;4928022;28;19926;-43
2023/10/20 12:42:31;;;;;;;;;;;;;;;;;;4928505;29;20009;-43
2023/10/20 12:44:57;;;;;;;;;;;;;;;;;;4928208;29;19911;-43
2023/10/20 12:47:23;;;;;;;;;;;;;;;;;;4928088;29;19945;-43
2023/10/20 12:49:49;;;;;;;;;;;;;;;;;;4928257;29;19961;-43
2023/10/20 12:52:15;;;;;;;;;;;;;;;;;;4928040;29;20519;-45
2023/10/20 12:54:41;;;;;;;;;;;;;;;;;;4928790;29;19911;-43
2023/10/20 12:57:07;;;;;;;;;;;;;;;;;;4931131;29;20329;-44
2023/10/20 12:59:33;;;;;;;;;;;;;;;;;;4931147;29;19922;-42
2023/10/20 13:01:59;;;;;;;;;;;;;;;;;;4931244;29;19994;-43
2023/10/20 13:04:26;;;;;;;;;;;;;;;;;;4931312;29;19907;-43
2023/10/20 13:06:52;;;;;;;;;;;;;;;;;;4931191;29;20014;-43
2023/10/20 13:09:18;;;;;;;;;;;;;;;;;;4931298;29;20385;-43
2023/10/20 13:11:44;;;;;;;;;;;;;;;;;;4931000;29;19986;-43
2023/10/20 13:14:10;;;;;;;;;;;;;;;;;;4931428;29;19907;-43
2023/10/20 13:16:35;;;;;;;;;;;;;;;;;;4930813;29;20001;-44
2023/10/20 13:19:01;;;;;;;;;;;;;;;;;;4931080;29;20016;-43
2023/10/20 13:21:29;;;;;;;;;;;;;;;;;;4931012;29;20278;-43
2023/10/20 13:23:55;;;;;;;;;;;;;;;;;;4931064;29;20021;-40
2023/10/20 13:26:21;;;;;;;;;;;;;;;;;;4930414;29;20373;-40
2023/10/20 13:28:47;;;;;;;;;;;;;;;;;;4929734;29;19911;-39
2023/10/20 13:31:16;;;;;;;;;;;;;;;;;;4930909;29;19910;-39
2023/10/20 13:33:43;;;;;;;;;;;;;;;;;;4930282;29;19997;-39
2023/10/20 13:36:12;;;;;;;;;;;;;;;;;;4930956;29;20001;-42
2023/10/20 13:38:38;;;;;;;;;;;;;;;;;;4930946;29;20310;-43
2023/10/20 13:41:04;;;;;;;;;;;;;;;;;;4929562;29;19915;-39
2023/10/20 13:43:30;;;;;;;;;;;;;;;;;;4929496;29;19918;-39
2023/10/20 13:45:56;;;;;;;;;;;;;;;;;;4929566;29;20380;-39
2023/10/20 13:48:22;;;;;;;;;;;;;;;;;;4929636;29;19915;-39
2023/10/20 13:50:48;;;;;;;;;;;;;;;;;;4929406;29;19911;-39
2023/10/20 13:53:14;;;;;;;;;;;;;;;;;;4929845;29;19911;-39
2023/10/20 13:55:40;;;;;;;;;;;;;;;;;;4930179;29;19937;-39
2023/10/20 13:58:06;;;;;;;;;;;;;;;;;;4928928;29;19915;-39
2023/10/20 14:00:35;;;;;;;;;;;;;;;;;;4929389;29;19922;-39
2023/10/20 14:03:01;;;;;;;;;;;;;;;;;;4929195;29;19910;-39
2023/10/20 14:05:29;;;;;;;;;;;;;;;;;;4929214;29;19918;-39
2023/10/20 14:07:55;;;;;;;;;;;;;;;;;;4928440;29;19910;-39
2023/10/20 14:10:21;;;;;;;;;;;;;;;;;;4929080;29;20006;-39
2023/10/20 14:12:47;;;;;;;;;;;;;;;;;;4928821;29;20018;-39
2023/10/20 14:15:13;;;;;;;;;;;;;;;;;;4929812;29;19911;-39
2023/10/20 14:17:39;;;;;;;;;;;;;;;;;;4928838;29;19923;-39
2023/10/20 14:20:04;;;;;;;;;;;;;;;;;;4928925;29;19914;-39
2023/10/20 14:22:32;;;;;;;;;;;;;;;;;;4928239;28;20214;-39
2023/10/20 14:24:58;;;;;;;;;;;;;;;;;;4929034;29;19915;-39
2023/10/20 14:27:24;;;;;;;;;;;;;;;;;;4928633;29;20424;-39
2023/10/20 14:29:50;;;;;;;;;;;;;;;;;;4927563;29;19958;-39
2023/10/20 14:32:16;;;;;;;;;;;;;;;;;;4929862;29;19985;-39
2023/10/20 14:34:41;;;;;;;;;;;;;;;;;;4929482;29;19981;-40
2023/10/20 14:37:10;;;;;;;;;;;;;;;;;;4928453;29;19972;-39
2023/10/20 14:39:38;;;;;;;;;;;;;;;;;;4927446;29;19921;-39
2023/10/20 14:42:04;;;;;;;;;;;;;;;;;;4928439;29;19957;-39
2023/10/20 14:44:30;;;;;;;;;;;;;;;;;;4928761;29;19907;-39
2023/10/20 14:46:56;;;;;;;;;;;;;;;;;;4928263;29;19956;-39
2023/10/20 14:49:22;;;;;;;;;;;;;;;;;;4928799;29;19907;-39
2023/10/20 14:51:48;;;;;;;;;;;;;;;;;;4928420;29;20127;-39
2023/10/20 14:54:15;;;;;;;;;;;;;;;;;;4929046;29;20378;-39
2023/10/20 14:56:41;;;;;;;;;;;;;;;;;;4928556;29;19914;-39
2023/10/20 14:59:07;;;;;;;;;;;;;;;;;;4927192;29;20741;-39
2023/10/20 15:01:35;;;;;;;;;;;;;;;;;;4928261;29;19911;-39
2023/10/20 15:04:02;;;;;;;;;;;;;;;;;;4928381;29;19922;-39
2023/10/20 15:06:29;;;;;;;;;;;;;;;;;;4928149;29;19915;-39
2023/10/20 15:08:55;;;;;;;;;;;;;;;;;;4928290;29;20012;-39
2023/10/20 15:11:21;;;;;;;;;;;;;;;;;;4928190;29;20329;-39
2023/10/20 15:13:47;;;;;;;;;;;;;;;;;;4928746;29;19917;-39
2023/10/20 15:16:15;;;;;;;;;;;;;;;;;;4928803;29;20288;-39
2023/10/20 15:18:41;;;;;;;;;;;;;;;;;;4927865;29;20009;-39
2023/10/20 15:21:07;;;;;;;;;;;;;;;;;;4927331;29;20009;-39
2023/10/20 15:23:32;;;;;;;;;;;;;;;;;;4928069;29;19918;-39
2023/10/20 15:25:58;;;;;;;;;;;;;;;;;;4927842;29;20301;-39
2023/10/20 15:28:24;;;;;;;;;;;;;;;;;;4928119;29;19998;-39
2023/10/20 15:30:50;;;;;;;;;;;;;;;;;;4927864;29;20270;-39
2023/10/20 15:33:16;;;;;;;;;;;;;;;;;;4928473;29;19911;-39
2023/10/20 15:35:42;;;;;;;;;;;;;;;;;;4927856;29;19910;-39
2023/10/20 15:38:10;;;;;;;;;;;;;;;;;;4927567;29;20229;-39
2023/10/20 15:40:35;;;;;;;;;;;;;;;;;;4927884;29;19965;-38
2023/10/20 15:43:03;;;;;;;;;;;;;;;;;;4927829;29;19910;-39
2023/10/20 15:45:29;;;;;;;;;;;;;;;;;;4927949;29;19914;-39
2023/10/20 15:47:55;;;;;;;;;;;;;;;;;;4926465;29;19968;-46
2023/10/20 15:50:21;;;;;;;;;;;;;;;;;;4925984;29;19921;-47
2023/10/20 15:52:47;;;;;;;;;;;;;;;;;;4928786;29;19938;-48
2023/10/20 15:55:13;;;;;;;;;;;;;;;;;;4928688;29;19911;-48
2023/10/20 15:57:38;;;;;;;;;;;;;;;;;;4927950;29;19922;-49
2023/10/20 16:00:04;;;;;;;;;;;;;;;;;;4928159;29;19914;-48
2023/10/20 16:02:30;;;;;;;;;;;;;;;;;;4927362;28;19961;-47
2023/10/20 16:04:56;;;;;;;;;;;;;;;;;;4928161;28;20590;-48
2023/10/20 16:07:22;;;;;;;;;;;;;;;;;;4928666;29;19915;-46
2023/10/20 16:09:48;;;;;;;;;;;;;;;;;;4970956;28;19972;-48
2023/10/20 16:12:14;;;;;;;;;;;;;;;;;;5008361;28;20001;-44
2023/10/20 16:14:41;;;;;;;;;;;;;;;;;;5009160;28;19959;-46
2023/10/20 16:17:07;;;;;;;;;;;;;;;;;;4973491;28;19915;-48
2023/10/20 16:19:33;;;;;;;;;;;;;;;;;;4928715;29;19930;-48
2023/10/20 16:21:59;;;;;;;;;;;;;;;;;;4926528;29;19915;-47
2023/10/20 16:24:25;;;;;;;;;;;;;;;;;;4927158;29;19990;-48
2023/10/20 16:26:51;;;;;;;;;;;;;;;;;;4927244;29;20634;-44
2023/10/20 16:29:17;;;;;;;;;;;;;;;;;;4927741;29;19918;-46
2023/10/20 16:31:43;;;;;;;;;;;;;;;;;;4929548;29;19910;-45
2023/10/20 16:34:09;;;;;;;;;;;;;;;;;;4930306;29;19914;-45
2023/10/20 16:36:35;;;;;;;;;;;;;;;;;;4930581;29;20315;-46
2023/10/20 16:39:04;;;;;;;;;;;;;;;;;;4930149;29;19934;-49
2023/10/20 16:41:29;;;;;;;;;;;;;;;;;;4930526;29;19911;-49
2023/10/20 16:43:55;;;;;;;;;;;;;;;;;;4930213;29;20300;-46
2023/10/20 16:46:22;;;;;;;;;;;;;;;;;;4928659;28;20296;-48
2023/10/20 16:48:48;;;;;;;;;;;;;;;;;;4929896;28;19919;-47
2023/10/20 16:51:14;;;;;;;;;;;;;;;;;;4930899;28;19911;-45
2023/10/20 16:53:40;;;;;;;;;;;;;;;;;;4924149;28;19919;-45
2023/10/20 16:56:08;;;;;;;;;;;;;;;;;;4926397;29;20397;-46
2023/10/20 16:58:34;;;;;;;;;;;;;;;;;;4928115;29;19915;-46
2023/10/20 17:01:00;;;;;;;;;;;;;;;;;;4930453;29;19937;-48
2023/10/20 17:03:26;;;;;;;;;;;;;;;;;;4929240;29;19922;-46
2023/10/20 17:05:52;;;;;;;;;;;;;;;;;;4931124;28;19915;-49
2023/10/20 17:08:18;;;;;;;;;;;;;;;;;;4932384;29;19914;-48
2023/10/20 17:10:44;;;;;;;;;;;;;;;;;;4931998;29;19911;-50
2023/10/20 17:13:10;;;;;;;;;;;;;;;;;;4929328;28;19919;-50
2023/10/20 17:15:36;;;;;;;;;;;;;;;;;;4928552;28;19978;-49
2023/10/20 17:18:04;;;;;;;;;;;;;;;;;;4930802;29;19954;-49
2023/10/20 17:20:31;;;;;;;;;;;;;;;;;;4929338;29;19919;-48
2023/10/20 17:22:57;;;;;;;;;;;;;;;;;;4930802;29;20330;-46
2023/10/20 17:25:23;;;;;;;;;;;;;;;;;;4929615;28;19993;-49
2023/10/20 17:27:49;;;;;;;;;;;;;;;;;;4931785;29;19911;-49
2023/10/20 17:30:15;;;;;;;;;;;;;;;;;;4929505;29;19969;-48
2023/10/20 17:32:41;;;;;;;;;;;;;;;;;;4931069;29;19919;-48
2023/10/20 17:35:07;;;;;;;;;;;;;;;;;;4927745;28;19915;-45
2023/10/20 17:37:33;;;;;;;;;;;;;;;;;;4927672;28;19915;-48
2023/10/20 17:39:59;;;;;;;;;;;;;;;;;;4928282;28;19930;-48
2023/10/20 17:42:24;;;;;;;;;;;;;;;;;;4926887;28;19926;-46
2023/10/20 17:44:50;;;;;;;;;;;;;;;;;;4929612;29;20386;-48
2023/10/20 17:47:16;;;;;;;;;;;;;;;;;;4926401;29;19957;-49
2023/10/20 17:49:42;;;;;;;;;;;;;;;;;;4942346;28;19915;-49
2023/10/20 17:52:09;;;;;;;;;;;;;;;;;;4927541;28;19934;-48
2023/10/20 17:54:35;;;;;;;;;;;;;;;;;;4926790;28;19919;-47
2023/10/20 17:57:00;;;;;;;;;;;;;;;;;;4929015;28;19918;-48
2023/10/20 17:59:26;;;;;;;;;;;;;;;;;;4928421;29;20397;-47
2023/10/20 18:01:52;;;;;;;;;;;;;;;;;;4943032;28;19972;-50
2023/10/20 18:04:19;;;;;;;;;;;;;;;;;;4925663;28;19926;-46
2023/10/20 18:06:45;;;;;;;;;;;;;;;;;;4923703;28;20753;-46
2023/10/20 18:09:11;;;;;;;;;;;;;;;;;;4924217;28;19915;-48
2023/10/20 18:11:37;;;;;;;;;;;;;;;;;;4927738;28;20005;-49
2023/10/20 18:14:03;;;;;;;;;;;;;;;;;;4928108;28;19915;-48
2023/10/20 18:16:31;;;;;;;;;;;;;;;;;;4944782;28;20426;-49
2023/10/20 18:18:57;;;;;;;;;;;;;;;;;;4925890;28;19923;-47
2023/10/20 18:21:23;;;;;;;;;;;;;;;;;;4925724;28;19923;-47
2023/10/20 18:23:57;;;;;;;;;;;;;;;;;;4940914;28;19915;-50
2023/10/20 18:26:23;;;;;;;;;;;;;;;;;;4922610;28;19914;-47
2023/10/20 18:28:49;;;;;;;;;;;;;;;;;;4923992;28;20397;-48
2023/10/20 18:31:15;;;;;;;;;;;;;;;;;;4926945;28;19983;-48
2023/10/20 18:33:41;;;;;;;;;;;;;;;;;;4925030;28;19958;-48
2023/10/20 18:36:07;;;;;;;;;;;;;;;;;;4924957;28;19968;-47
2023/10/20 18:38:34;;;;;;;;;;;;;;;;;;4921849;28;19915;-48
2023/10/20 18:41:01;;;;;;;;;;;;;;;;;;4925403;28;19954;-50
2023/10/20 18:43:27;;;;;;;;;;;;;;;;;;4926137;28;20292;-48
2023/10/20 18:45:53;;;;;;;;;;;;;;;;;;4926464;28;20005;-50
2023/10/20 18:48:19;;;;;;;;;;;;;;;;;;4925546;28;19926;-47
2023/10/20 18:50:45;;;;;;;;;;;;;;;;;;4941233;28;19915;-49
2023/10/20 18:53:11;;;;;;;;;;;;;;;;;;4926106;28;19915;-49
2023/10/20 18:55:37;;;;;;;;;;;;;;;;;;4926301;28;20001;-50
2023/10/20 18:58:02;;;;;;;;;;;;;;;;;;4926062;29;20014;-50
2023/10/20 19:00:31;;;;;;;;;;;;;;;;;;4926830;29;19986;-46
2023/10/20 19:02:57;;;;;;;;;;;;;;;;;;4926354;28;19989;-46
2023/10/20 19:05:22;;;;;;;;;;;;;;;;;;4927337;28;19966;-47
2023/10/20 19:07:48;;;;;;;;;;;;;;;;;;4941860;29;19921;-49
2023/10/20 19:10:14;;;;;;;;;;;;;;;;;;4940493;28;20002;-50
2023/10/20 19:12:40;;;;;;;;;;;;;;;;;;4943074;28;20416;-46
2023/10/20 19:15:07;;;;;;;;;;;;;;;;;;4940318;28;19969;-51
2023/10/20 19:17:33;;;;;;;;;;;;;;;;;;4926011;28;19988;-49
2023/10/20 19:19:59;;;;;;;;;;;;;;;;;;4925150;28;19922;-50
2023/10/20 19:22:24;;;;;;;;;;;;;;;;;;4939894;28;19938;-50
2023/10/20 19:24:50;;;;;;;;;;;;;;;;;;4941589;28;19922;-49
2023/10/20 19:27:16;;;;;;;;;;;;;;;;;;4926795;29;20338;-50
2023/10/20 19:29:42;;;;;;;;;;;;;;;;;;4924415;29;19911;-49
2023/10/20 19:32:08;;;;;;;;;;;;;;;;;;4926056;28;20309;-51
2023/10/20 19:34:34;;;;;;;;;;;;;;;;;;4939366;28;19964;-50
2023/10/20 19:37:00;;;;;;;;;;;;;;;;;;4925814;28;19914;-47
2023/10/20 19:39:26;;;;;;;;;;;;;;;;;;4924881;28;20278;-47
2023/10/20 19:41:53;;;;;;;;;;;;;;;;;;4924840;28;19915;-50
2023/10/20 19:44:19;;;;;;;;;;;;;;;;;;4923930;28;19923;-46
2023/10/20 19:46:47;;;;;;;;;;;;;;;;;;4924613;28;19915;-49
2023/10/20 19:49:13;;;;;;;;;;;;;;;;;;4924312;28;19911;-50
2023/10/20 19:51:39;;;;;;;;;;;;;;;;;;4924979;28;19919;-50
2023/10/20 19:54:05;;;;;;;;;;;;;;;;;;4924528;28;19964;-48
2023/10/20 19:56:31;;;;;;;;;;;;;;;;;;4925692;29;20377;-49
2023/10/20 19:58:57;;;;;;;;;;;;;;;;;;4926956;29;19918;-48
2023/10/20 20:01:24;;;;;;;;;;;;;;;;;;4925907;29;19922;-48
2023/10/20 20:03:49;;;;;;;;;;;;;;;;;;4926834;29;19914;-51
2023/10/20 20:06:15;;;;;;;;;;;;;;;;;;4926755;29;19918;-49
2023/10/20 20:08:41;;;;;;;;;;;;;;;;;;4912722;29;20006;-46
2023/10/20 20:11:07;;;;;;;;;;;;;;;;;;4910721;29;20204;-45
2023/10/20 20:13:33;;;;;;;;;;;;;;;;;;4927668;28;20413;-48
2023/10/20 20:15:59;;;;;;;;;;;;;;;;;;4929912;29;20073;-49
2023/10/20 20:18:25;;;;;;;;;;;;;;;;;;4930115;29;19958;-49
2023/10/20 20:20:51;;;;;;;;;;;;;;;;;;4929539;29;20354;-49
2023/10/20 20:23:17;;;;;;;;;;;;;;;;;;4925991;29;19922;-47
2023/10/20 20:25:43;;;;;;;;;;;;;;;;;;4928075;29;19969;-49
2023/10/20 20:28:09;;;;;;;;;;;;;;;;;;4944360;28;19915;-49
2023/10/20 20:30:35;;;;;;;;;;;;;;;;;;4928080;28;20013;-48
2023/10/20 20:33:02;;;;;;;;;;;;;;;;;;4928834;29;19938;-46
2023/10/20 20:35:28;;;;;;;;;;;;;;;;;;4927766;29;19926;-49
2023/10/20 20:37:54;;;;;;;;;;;;;;;;;;4929520;29;19911;-49
2023/10/20 20:40:20;;;;;;;;;;;;;;;;;;4929138;28;20306;-49
2023/10/20 20:42:46;;;;;;;;;;;;;;;;;;4929781;29;19911;-48
2023/10/20 20:45:13;;;;;;;;;;;;;;;;;;4927470;29;19976;-47
2023/10/20 20:47:40;;;;;;;;;;;;;;;;;;4928800;29;20056;-46
2023/10/20 20:50:06;;;;;;;;;;;;;;;;;;4929409;29;19911;-46
2023/10/20 20:52:32;;;;;;;;;;;;;;;;;;4928836;29;19911;-47
2023/10/20 20:54:59;;;;;;;;;;;;;;;;;;4928273;28;20365;-50
2023/10/20 20:57:25;;;;;;;;;;;;;;;;;;4928946;29;19918;-48
2023/10/20 20:59:51;;;;;;;;;;;;;;;;;;4929333;29;19918;-48
2023/10/20 21:02:18;;;;;;;;;;;;;;;;;;4928812;29;20378;-47
2023/10/20 21:04:43;;;;;;;;;;;;;;;;;;4927847;28;20415;-46
2023/10/20 21:07:09;;;;;;;;;;;;;;;;;;4927912;29;19950;-50
2023/10/20 21:09:35;;;;;;;;;;;;;;;;;;4928647;29;19934;-50
2023/10/20 21:12:01;;;;;;;;;;;;;;;;;;4943228;28;19915;-49
2023/10/20 21:14:27;;;;;;;;;;;;;;;;;;4928369;29;19964;-50
2023/10/20 21:16:53;;;;;;;;;;;;;;;;;;4944496;28;19962;-51
2023/10/20 21:19:19;;;;;;;;;;;;;;;;;;4928512;28;20009;-46
2023/10/20 21:21:45;;;;;;;;;;;;;;;;;;4928710;29;19911;-45
2023/10/20 21:24:10;;;;;;;;;;;;;;;;;;4943195;28;19911;-49
2023/10/20 21:26:39;;;;;;;;;;;;;;;;;;4927089;29;19962;-49
2023/10/20 21:29:05;;;;;;;;;;;;;;;;;;4926742;29;19914;-47
2023/10/20 21:31:31;;;;;;;;;;;;;;;;;;4928935;29;19974;-44
2023/10/20 21:33:57;;;;;;;;;;;;;;;;;;4929508;29;19911;-48
2023/10/20 21:36:23;;;;;;;;;;;;;;;;;;4927010;28;20005;-49
2023/10/20 21:38:49;;;;;;;;;;;;;;;;;;4929424;29;19915;-46
2023/10/20 21:41:15;;;;;;;;;;;;;;;;;;4929073;29;19915;-51
2023/10/20 21:43:40;;;;;;;;;;;;;;;;;;4928744;29;19918;-47
2023/10/20 21:46:07;;;;;;;;;;;;;;;;;;4927929;29;19914;-45
2023/10/20 21:48:33;;;;;;;;;;;;;;;;;;4928767;29;19911;-50
2023/10/20 21:50:58;;;;;;;;;;;;;;;;;;4929493;29;20377;-47
2023/10/20 21:53:25;;;;;;;;;;;;;;;;;;4928830;29;20381;-46
2023/10/20 21:55:50;;;;;;;;;;;;;;;;;;4926914;29;19960;-47